createdAt,value
2023-02-22T00:01:33.653Z,8.50
2023-02-22T00:04:06.425Z,8.50
2023-02-22T00:06:36.552Z,8.50
2023-02-22T00:09:03.884Z,8.50
2023-02-22T00:11:35.558Z,8.50
2023-02-22T00:14:02.681Z,8.50
2023-02-22T00:16:34.441Z,8.40
2023-02-22T00:19:01.587Z,8.40
2023-02-22T00:21:31.125Z,8.40
2023-02-22T00:23:58.272Z,8.40
2023-02-22T00:26:25.406Z,8.40
2023-02-22T00:28:53.962Z,8.40
2023-02-22T00:31:26.632Z,8.40
2023-02-22T00:33:53.786Z,8.40
2023-02-22T00:36:20.860Z,8.40
2023-02-22T00:38:50.056Z,8.40
2023-02-22T00:41:19.609Z,8.40
2023-02-22T00:43:48.958Z,8.40
2023-02-22T00:46:20.665Z,8.40
2023-02-22T00:48:50.103Z,8.40
2023-02-22T00:51:19.416Z,8.40
2023-02-22T00:53:48.727Z,8.30
2023-02-22T00:56:18.596Z,8.30
2023-02-22T00:58:48.259Z,8.30
2023-02-22T01:01:15.699Z,8.30
2023-02-22T01:03:43.055Z,8.20
2023-02-22T01:06:12.300Z,8.20
2023-02-22T01:08:47.486Z,8.20
2023-02-22T01:11:16.609Z,8.10
2023-02-22T01:13:54.140Z,8.10
2023-02-22T01:16:26.168Z,8.10
2023-02-22T01:18:55.786Z,8.10
2023-02-22T01:21:24.979Z,8.00
2023-02-22T01:23:55.104Z,8.00
2023-02-22T01:26:24.566Z,8.00
2023-02-22T01:28:51.691Z,8.00
2023-02-22T01:31:21.139Z,8.00
2023-02-22T01:33:53.690Z,7.90
2023-02-22T01:36:23.372Z,7.90
2023-02-22T01:38:53.234Z,7.80
2023-02-22T01:41:23.040Z,7.80
2023-02-22T01:43:50.139Z,7.80
2023-02-22T01:46:23.972Z,7.80
2023-02-22T01:48:56.022Z,7.70
2023-02-22T01:51:28.424Z,7.70
2023-02-22T01:53:57.219Z,7.60
2023-02-22T01:56:26.676Z,7.60
2023-02-22T01:59:07.872Z,7.60
2023-02-22T02:01:42.959Z,7.50
2023-02-22T02:04:19.296Z,7.50
2023-02-22T02:06:52.993Z,7.40
2023-02-22T02:09:50.524Z,7.40
2023-02-22T02:12:19.835Z,7.40
2023-02-22T02:14:47.323Z,7.40
2023-02-22T02:17:18.333Z,7.30
2023-02-22T02:20:25.019Z,7.30
2023-02-22T02:23:14.819Z,7.30
2023-02-22T02:26:11.016Z,7.30
2023-02-22T02:29:06.944Z,7.20
2023-02-22T02:31:36.534Z,7.10
2023-02-22T02:34:21.912Z,7.10
2023-02-22T02:37:07.164Z,7.10
2023-02-22T02:39:41.463Z,7.10
2023-02-22T02:42:20.300Z,7.10
2023-02-22T02:45:03.603Z,7.10
2023-02-22T02:47:37.208Z,7.10
2023-02-22T02:50:11.504Z,7.10
2023-02-22T02:52:40.893Z,7.10
2023-02-22T02:55:13.765Z,7.10
2023-02-22T02:57:40.850Z,7.10
2023-02-22T03:00:23.987Z,7.10
2023-02-22T03:03:17.730Z,7.10
2023-02-22T03:06:09.705Z,7.00
2023-02-22T03:08:58.152Z,7.00
2023-02-22T03:11:29.320Z,7.00
2023-02-22T03:14:25.353Z,6.90
2023-02-22T03:17:09.521Z,6.90
2023-02-22T03:19:44.155Z,6.90
2023-02-22T03:22:28.547Z,6.90
2023-02-22T03:25:07.149Z,6.90
2023-02-22T03:27:43.600Z,6.80
2023-02-22T03:30:24.844Z,6.80
2023-02-22T03:32:58.593Z,6.80
2023-02-22T03:35:31.223Z,6.80
2023-02-22T03:38:02.214Z,6.80
2023-02-22T03:40:38.880Z,6.80
2023-02-22T03:43:09.979Z,6.70
2023-02-22T03:45:43.414Z,6.70
2023-02-22T03:48:23.069Z,6.70
2023-02-22T03:50:53.289Z,6.70
2023-02-22T03:53:23.240Z,6.70
2023-02-22T03:55:55.561Z,6.70
2023-02-22T03:58:24.240Z,6.70
2023-02-22T04:00:53.305Z,6.70
2023-02-22T04:03:23.813Z,6.70
2023-02-22T04:05:53.400Z,6.70
2023-02-22T04:08:22.834Z,6.70
2023-02-22T04:10:49.985Z,6.70
2023-02-22T04:13:19.309Z,6.70
2023-02-22T04:15:46.523Z,6.60
2023-02-22T04:18:14.238Z,6.70
2023-02-22T04:20:41.466Z,6.70
2023-02-22T04:23:10.887Z,6.60
2023-02-22T04:25:42.825Z,6.60
2023-02-22T04:28:16.874Z,6.60
2023-02-22T04:30:44.147Z,6.60
2023-02-22T04:33:16.773Z,6.60
2023-02-22T04:35:46.594Z,6.60
2023-02-22T04:38:13.732Z,6.60
2023-02-22T04:40:43.102Z,6.60
2023-02-22T04:43:10.269Z,6.60
2023-02-22T04:45:39.890Z,6.60
2023-02-22T04:48:09.215Z,6.50
2023-02-22T04:50:36.420Z,6.50
2023-02-22T04:53:03.684Z,6.50
2023-02-22T04:55:34.941Z,6.50
2023-02-22T04:58:04.584Z,6.50
2023-02-22T05:00:31.713Z,6.40
2023-02-22T05:02:58.866Z,6.40
2023-02-22T05:05:28.532Z,6.40
2023-02-22T05:07:57.634Z,6.40
2023-02-22T05:10:27.334Z,6.40
2023-02-22T05:12:58.788Z,6.40
2023-02-22T05:15:25.979Z,6.40
2023-02-22T05:17:55.653Z,6.40
2023-02-22T05:20:31.617Z,6.40
2023-02-22T05:23:02.303Z,6.40
2023-02-22T05:25:34.545Z,6.40
2023-02-22T05:28:10.883Z,6.40
2023-02-22T05:30:40.893Z,6.40
2023-02-22T05:33:10.879Z,6.40
2023-02-22T05:35:43.793Z,6.40
2023-02-22T05:38:15.062Z,6.40
2023-02-22T05:40:44.777Z,6.40
2023-02-22T05:43:11.867Z,6.40
2023-02-22T05:45:38.988Z,6.40
2023-02-22T05:48:08.916Z,6.40
2023-02-22T05:50:35.988Z,6.40
2023-02-22T05:53:05.795Z,6.40
2023-02-22T05:55:37.575Z,6.40
2023-02-22T05:58:05.944Z,6.40
2023-02-22T06:00:33.274Z,6.40
2023-02-22T06:03:08.110Z,6.40
2023-02-22T06:05:38.854Z,6.30
2023-02-22T06:08:09.800Z,6.30
2023-02-22T06:10:42.000Z,6.30
2023-02-22T06:13:09.487Z,6.30
2023-02-22T06:15:36.636Z,6.30
2023-02-22T06:18:03.936Z,6.30
2023-02-22T06:20:35.690Z,6.30
2023-02-22T06:23:04.929Z,6.30
2023-02-22T06:25:34.667Z,6.30
2023-02-22T06:28:02.211Z,6.30
2023-02-22T06:30:30.463Z,6.30
2023-02-22T06:32:57.997Z,6.30
2023-02-22T06:35:27.364Z,6.30
2023-02-22T06:37:58.842Z,6.30
2023-02-22T06:40:29.514Z,6.30
2023-02-22T06:42:58.067Z,6.30
2023-02-22T06:45:27.825Z,6.30
2023-02-22T06:47:59.709Z,6.30
2023-02-22T06:50:29.281Z,6.30
2023-02-22T06:52:59.565Z,6.30
2023-02-22T06:55:31.810Z,6.30
2023-02-22T06:58:05.025Z,6.30
2023-02-22T07:00:35.108Z,6.30
2023-02-22T07:03:04.698Z,6.30
2023-02-22T07:05:31.897Z,6.30
2023-02-22T07:08:06.726Z,6.30
2023-02-22T07:10:39.924Z,6.30
2023-02-22T07:13:08.675Z,6.40
2023-02-22T07:15:36.452Z,6.30
2023-02-22T07:18:07.384Z,6.40
2023-02-22T07:20:34.629Z,6.40
2023-02-22T07:23:06.883Z,6.40
2023-02-22T07:25:34.227Z,6.40
2023-02-22T07:28:03.701Z,6.40
2023-02-22T07:30:34.220Z,6.40
2023-02-22T07:33:10.068Z,6.50
2023-02-22T07:35:48.435Z,6.50
2023-02-22T07:38:19.980Z,6.50
2023-02-22T07:40:49.786Z,6.50
2023-02-22T07:43:24.552Z,6.50
2023-02-22T07:45:56.485Z,6.50
2023-02-22T07:48:25.669Z,6.50
2023-02-22T07:51:00.525Z,6.60
2023-02-22T07:53:34.005Z,6.60
2023-02-22T07:56:08.915Z,6.70
2023-02-22T07:58:39.177Z,6.70
2023-02-22T08:01:08.748Z,6.80
2023-02-22T08:03:38.584Z,6.80
2023-02-22T08:06:09.242Z,6.90
2023-02-22T08:08:36.463Z,6.90
2023-02-22T08:11:04.085Z,6.90
2023-02-22T08:13:31.366Z,7.00
2023-02-22T08:15:58.793Z,7.00
2023-02-22T08:18:28.085Z,7.10
2023-02-22T08:20:55.510Z,7.20
2023-02-22T08:23:28.986Z,7.20
2023-02-22T08:26:08.248Z,7.30
2023-02-22T08:28:37.847Z,7.40
2023-02-22T08:31:07.745Z,7.40
2023-02-22T08:33:37.485Z,7.50
2023-02-22T08:36:05.289Z,7.50
2023-02-22T08:38:35.058Z,7.60
2023-02-22T08:41:02.221Z,7.60
2023-02-22T08:43:29.382Z,7.70
2023-02-22T08:45:58.956Z,7.80
2023-02-22T08:48:26.292Z,7.90
2023-02-22T08:50:53.583Z,7.90
2023-02-22T08:53:24.987Z,7.90
2023-02-22T08:55:55.531Z,8.10
2023-02-22T08:58:27.167Z,8.10
2023-02-22T09:00:58.674Z,8.20
2023-02-22T09:03:28.344Z,8.30
2023-02-22T09:05:55.855Z,8.40
2023-02-22T09:08:25.216Z,8.40
2023-02-22T09:10:52.503Z,8.50
2023-02-22T09:13:19.752Z,8.60
2023-02-22T09:15:46.853Z,8.70
2023-02-22T09:18:14.754Z,8.80
2023-02-22T09:20:42.368Z,8.90
2023-02-22T09:23:10.073Z,9.00
2023-02-22T09:25:38.870Z,9.00
2023-02-22T09:28:06.261Z,9.10
2023-02-22T09:30:35.147Z,9.20
2023-02-22T09:33:10.171Z,9.30
2023-02-22T09:35:46.571Z,9.30
2023-02-22T09:38:18.901Z,9.40
2023-02-22T09:41:14.553Z,9.50
2023-02-22T09:44:15.470Z,9.50
2023-02-22T09:46:45.810Z,9.60
2023-02-22T09:49:19.440Z,9.60
2023-02-22T09:52:08.055Z,9.70
2023-02-22T09:54:43.450Z,9.80
2023-02-22T09:57:20.698Z,9.80
2023-02-22T10:00:32.519Z,9.90
2023-02-22T10:03:21.350Z,9.90
2023-02-22T10:06:09.205Z,10.00
2023-02-22T10:08:41.910Z,10.00
2023-02-22T10:11:29.600Z,10.10
2023-02-22T10:14:14.570Z,10.10
2023-02-22T10:16:49.963Z,10.10
2023-02-22T10:19:43.893Z,10.20
2023-02-22T10:22:37.452Z,10.20
2023-02-22T10:25:12.978Z,10.20
2023-02-22T10:27:44.959Z,10.30
2023-02-22T10:30:25.120Z,10.30
2023-02-22T10:33:17.159Z,10.40
2023-02-22T10:35:46.935Z,10.40
2023-02-22T10:38:17.321Z,10.50
2023-02-22T10:41:10.287Z,10.50
2023-02-22T10:43:43.161Z,10.60
2023-02-22T10:46:17.066Z,10.60
2023-02-22T10:48:49.858Z,10.70
2023-02-22T10:51:17.245Z,10.70
2023-02-22T10:54:01.439Z,10.80
2023-02-22T10:56:30.915Z,10.80
2023-02-22T10:59:06.045Z,10.90
2023-02-22T11:01:33.249Z,10.90
2023-02-22T11:04:34.607Z,11.00
2023-02-22T11:07:01.795Z,11.10
2023-02-22T11:09:31.429Z,11.20
2023-02-22T11:12:30.471Z,11.20
2023-02-22T11:15:00.678Z,11.30
2023-02-22T11:17:34.429Z,11.50
2023-02-22T11:20:01.759Z,11.50
2023-02-22T11:22:42.119Z,11.60
2023-02-22T11:25:21.965Z,11.70
2023-02-22T11:27:59.985Z,11.80
2023-02-22T11:30:35.519Z,11.90
2023-02-22T11:33:24.114Z,12.00
2023-02-22T11:35:59.660Z,12.10
2023-02-22T11:38:39.522Z,12.20
2023-02-22T11:41:16.710Z,12.20
2023-02-22T11:43:49.361Z,12.30
2023-02-22T11:46:26.274Z,12.40
2023-02-22T11:49:00.943Z,12.50
2023-02-22T11:51:33.176Z,12.50
2023-02-22T11:54:28.814Z,12.60
2023-02-22T11:57:23.128Z,12.70
2023-02-22T12:00:16.599Z,12.70
2023-02-22T12:03:08.331Z,12.80
2023-02-22T12:06:07.172Z,12.80
2023-02-22T12:09:02.033Z,12.90
2023-02-22T12:11:50.905Z,13.00
2023-02-22T12:14:38.293Z,13.00
2023-02-22T12:17:39.006Z,13.00
2023-02-22T12:20:12.866Z,13.10
2023-02-22T12:22:53.505Z,13.10
2023-02-22T12:25:29.729Z,13.20
2023-02-22T12:28:24.818Z,13.20
2023-02-22T12:31:23.404Z,13.30
2023-02-22T12:34:09.817Z,13.40
2023-02-22T12:36:46.705Z,13.40
2023-02-22T12:39:58.647Z,13.40
2023-02-22T12:42:31.670Z,13.50
2023-02-22T12:45:10.395Z,13.60
2023-02-22T12:47:47.740Z,13.60
2023-02-22T12:50:28.562Z,13.60
2023-02-22T12:53:16.971Z,13.70
2023-02-22T12:56:00.440Z,13.70
2023-02-22T12:58:37.101Z,13.80
2023-02-22T13:01:20.099Z,13.80
2023-02-22T13:03:49.209Z,13.80
2023-02-22T13:06:42.852Z,13.80
2023-02-22T13:09:36.639Z,13.90
2023-02-22T13:12:11.801Z,13.90
2023-02-22T13:14:51.322Z,13.90
2023-02-22T13:18:01.660Z,14.00
2023-02-22T13:20:48.507Z,14.00
2023-02-22T13:23:19.255Z,14.00
2023-02-22T13:26:05.188Z,14.00
2023-02-22T13:28:57.963Z,14.00
2023-02-22T13:31:45.894Z,14.00
2023-02-22T13:34:16.626Z,14.00
2023-02-22T13:37:17.733Z,14.00
2023-02-22T13:40:17.231Z,14.00
2023-02-22T13:42:44.281Z,14.00
2023-02-22T13:45:39.417Z,14.00
2023-02-22T13:48:19.675Z,14.00
2023-02-22T13:51:31.202Z,14.10
2023-02-22T13:54:15.077Z,14.10
2023-02-22T13:56:44.465Z,14.10
2023-02-22T13:59:29.556Z,14.10
2023-02-22T14:02:01.223Z,14.10
2023-02-22T14:04:28.349Z,14.10
2023-02-22T14:06:56.647Z,14.10
2023-02-22T14:09:50.517Z,14.10
2023-02-22T14:12:29.206Z,14.10
2023-02-22T14:15:28.215Z,14.10
2023-02-22T14:18:08.496Z,14.10
2023-02-22T14:20:40.404Z,14.20
2023-02-22T14:23:26.105Z,14.10
2023-02-22T14:25:54.024Z,14.10
2023-02-22T14:28:46.235Z,14.10
2023-02-22T14:31:36.110Z,14.10
2023-02-22T14:34:12.528Z,14.10
2023-02-22T14:36:54.603Z,14.20
2023-02-22T14:39:33.122Z,14.20
2023-02-22T14:42:34.516Z,14.20
2023-02-22T14:45:24.846Z,14.10
2023-02-22T14:48:25.432Z,14.10
2023-02-22T14:51:19.071Z,14.10
2023-02-22T14:53:58.091Z,14.10
2023-02-22T14:56:30.135Z,14.10
2023-02-22T14:59:25.198Z,14.10
2023-02-22T15:02:12.942Z,14.10
2023-02-22T15:04:44.146Z,14.10
2023-02-22T15:07:35.840Z,14.10
2023-02-22T15:10:29.934Z,14.10
2023-02-22T15:13:16.099Z,14.00
2023-02-22T15:16:08.110Z,14.00
2023-02-22T15:18:40.782Z,14.00
2023-02-22T15:21:13.469Z,14.00
2023-02-22T15:23:49.711Z,13.90
2023-02-22T15:26:46.448Z,13.90
2023-02-22T15:29:35.071Z,13.90
2023-02-22T15:32:17.858Z,13.80
2023-02-22T15:34:45.124Z,13.80
2023-02-22T15:37:25.250Z,13.80
2023-02-22T15:40:14.430Z,13.80
2023-02-22T15:42:48.815Z,13.80
2023-02-22T15:45:20.218Z,13.80
2023-02-22T15:47:54.418Z,13.80
2023-02-22T15:50:26.035Z,13.80
2023-02-22T15:53:07.968Z,13.80
2023-02-22T15:55:35.047Z,13.80
2023-02-22T15:58:22.357Z,13.80
2023-02-22T16:00:59.152Z,13.70
2023-02-22T16:03:28.733Z,13.70
2023-02-22T16:05:58.498Z,13.70
2023-02-22T16:08:52.662Z,13.70
2023-02-22T16:11:38.456Z,13.70
2023-02-22T16:14:24.056Z,13.60
2023-02-22T16:17:10.754Z,13.50
2023-02-22T16:19:44.774Z,13.60
2023-02-22T16:22:29.135Z,13.60
2023-02-22T16:25:21.621Z,13.50
2023-02-22T16:27:52.685Z,13.50
2023-02-22T16:30:29.671Z,13.50
2023-02-22T16:33:05.525Z,13.40
2023-02-22T16:35:35.487Z,13.40
2023-02-22T16:38:14.823Z,13.40
2023-02-22T16:40:52.443Z,13.30
2023-02-22T16:43:22.886Z,13.30
2023-02-22T16:45:50.049Z,13.30
2023-02-22T16:48:23.536Z,13.20
2023-02-22T16:50:55.821Z,13.20
2023-02-22T16:53:27.903Z,13.20
2023-02-22T16:56:02.120Z,13.10
2023-02-22T16:58:36.351Z,13.10
2023-02-22T17:01:06.498Z,13.00
2023-02-22T17:03:36.108Z,13.00
2023-02-22T17:06:06.321Z,13.00
2023-02-22T17:08:38.267Z,13.00
2023-02-22T17:11:08.629Z,12.90
2023-02-22T17:13:40.365Z,12.90
2023-02-22T17:16:14.275Z,12.90
2023-02-22T17:18:45.966Z,12.90
2023-02-22T17:21:16.789Z,12.90
2023-02-22T17:23:46.804Z,12.80
2023-02-22T17:26:19.771Z,12.80
2023-02-22T17:28:46.966Z,12.80
2023-02-22T17:31:22.035Z,12.80
2023-02-22T17:33:51.561Z,12.80
2023-02-22T17:36:19.031Z,12.70
2023-02-22T17:38:49.912Z,12.70
2023-02-22T17:41:17.064Z,12.70
2023-02-22T17:43:44.391Z,12.70
2023-02-22T17:46:11.562Z,12.70
2023-02-22T17:48:41.068Z,12.60
2023-02-22T17:51:10.682Z,12.60
2023-02-22T17:53:38.783Z,12.60
2023-02-22T17:56:07.482Z,12.60
2023-02-22T17:58:43.511Z,12.60
2023-02-22T18:01:40.335Z,12.60
2023-02-22T18:04:09.866Z,12.60
2023-02-22T18:06:41.680Z,12.60
2023-02-22T18:09:11.249Z,12.60
2023-02-22T18:11:39.530Z,12.50
2023-02-22T18:14:12.275Z,12.50
2023-02-22T18:16:42.485Z,12.50
2023-02-22T18:19:11.794Z,12.50
2023-02-22T18:21:41.216Z,12.50
2023-02-22T18:24:12.988Z,12.50
2023-02-22T18:26:40.151Z,12.50
2023-02-22T18:29:07.697Z,12.40
2023-02-22T18:31:34.880Z,12.40
2023-02-22T18:34:04.558Z,12.40
2023-02-22T18:36:37.022Z,12.40
2023-02-22T18:39:04.408Z,12.40
2023-02-22T18:41:34.578Z,12.40
2023-02-22T18:44:03.225Z,12.40
2023-02-22T18:46:30.776Z,12.40
2023-02-22T18:48:58.439Z,12.40
2023-02-22T18:51:28.301Z,12.40
2023-02-22T18:54:01.579Z,12.40
2023-02-22T18:56:31.244Z,12.40
2023-02-22T18:59:03.582Z,12.40
2023-02-22T19:01:38.647Z,12.40
2023-02-22T19:04:14.355Z,12.40
2023-02-22T19:06:43.135Z,12.40
2023-02-22T19:09:10.313Z,12.40
2023-02-22T19:11:44.721Z,12.40
2023-02-22T19:14:12.233Z,12.40
2023-02-22T19:16:39.953Z,12.40
2023-02-22T19:19:11.773Z,12.40
2023-02-22T19:21:41.487Z,12.30
2023-02-22T19:24:08.574Z,12.30
2023-02-22T19:26:38.451Z,12.30
2023-02-22T19:29:08.479Z,12.30
2023-02-22T19:31:35.827Z,12.30
2023-02-22T19:34:11.409Z,12.30
2023-02-22T19:36:46.342Z,12.30
2023-02-22T19:39:18.928Z,12.30
2023-02-22T19:41:48.812Z,12.30
2023-02-22T19:44:18.489Z,12.30
2023-02-22T19:46:47.596Z,12.30
2023-02-22T19:49:16.148Z,12.30
2023-02-22T19:51:45.806Z,12.30
2023-02-22T19:54:19.495Z,12.30
2023-02-22T19:56:53.845Z,12.30
2023-02-22T19:59:26.133Z,12.20
2023-02-22T20:01:54.730Z,12.20
2023-02-22T20:04:24.770Z,12.20
2023-02-22T20:06:57.564Z,12.20
2023-02-22T20:09:49.682Z,12.30
2023-02-22T20:12:19.210Z,12.20
2023-02-22T20:14:51.264Z,12.20
2023-02-22T20:17:20.994Z,12.20
2023-02-22T20:19:48.895Z,12.20
2023-02-22T20:22:26.315Z,12.20
2023-02-22T20:24:55.900Z,12.20
2023-02-22T20:27:28.276Z,12.10
2023-02-22T20:29:55.342Z,12.10
2023-02-22T20:32:30.313Z,12.10
2023-02-22T20:35:00.298Z,12.10
2023-02-22T20:37:29.932Z,12.10
2023-02-22T20:40:04.163Z,12.10
2023-02-22T20:42:32.645Z,12.10
2023-02-22T20:45:04.834Z,12.10
2023-02-22T20:47:32.446Z,12.10
2023-02-22T20:49:59.615Z,12.10
2023-02-22T20:52:30.997Z,12.10
2023-02-22T20:55:01.864Z,12.10
2023-02-22T20:57:30.818Z,12.10
2023-02-22T20:59:59.084Z,12.10
2023-02-22T21:02:26.235Z,12.10
2023-02-22T21:04:58.402Z,12.10
2023-02-22T21:07:27.806Z,12.10
2023-02-22T21:09:59.737Z,12.00
2023-02-22T21:12:31.320Z,12.00
2023-02-22T21:15:03.319Z,12.00
2023-02-22T21:17:32.621Z,12.00
2023-02-22T21:20:09.141Z,12.00
2023-02-22T21:22:39.427Z,12.00
2023-02-22T21:25:06.798Z,12.00
2023-02-22T21:27:36.178Z,12.00
2023-02-22T21:30:06.616Z,12.00
2023-02-22T21:32:36.144Z,12.00
2023-02-22T21:35:06.335Z,12.00
2023-02-22T21:37:36.233Z,11.90
2023-02-22T21:40:10.351Z,12.00
2023-02-22T21:42:48.968Z,11.90
2023-02-22T21:45:22.860Z,11.90
2023-02-22T21:47:54.694Z,11.90
2023-02-22T21:50:25.497Z,11.90
2023-02-22T21:52:54.900Z,11.90
2023-02-22T21:55:29.818Z,11.90
2023-02-22T21:57:56.992Z,11.90
2023-02-22T22:00:31.081Z,11.80
2023-02-22T22:03:08.928Z,11.80
2023-02-22T22:05:45.216Z,11.80
2023-02-22T22:08:32.044Z,11.80
2023-02-22T22:10:59.189Z,11.80
2023-02-22T22:13:28.867Z,11.80
2023-02-22T22:15:56.095Z,11.80
2023-02-22T22:18:30.848Z,11.80
2023-02-22T22:21:05.055Z,11.80
2023-02-22T22:23:33.225Z,11.80
2023-02-22T22:26:10.852Z,11.70
2023-02-22T22:28:42.123Z,11.80
2023-02-22T22:31:10.915Z,11.70
2023-02-22T22:33:44.284Z,11.70
2023-02-22T22:36:18.410Z,11.70
2023-02-22T22:38:52.628Z,11.70
2023-02-22T22:41:25.215Z,11.70
2023-02-22T22:43:54.445Z,11.70
2023-02-22T22:46:21.917Z,11.70
2023-02-22T22:48:51.356Z,11.70
2023-02-22T22:51:21.970Z,11.70
2023-02-22T22:53:53.018Z,11.70
2023-02-22T22:56:26.506Z,11.70
2023-02-22T22:59:00.852Z,11.70
2023-02-22T23:01:34.192Z,11.70
2023-02-22T23:04:06.552Z,11.70
2023-02-22T23:06:41.719Z,11.70
2023-02-22T23:09:18.648Z,11.70
2023-02-22T23:12:08.477Z,11.70
2023-02-22T23:14:43.958Z,11.70
2023-02-22T23:17:26.795Z,11.70
2023-02-22T23:19:56.313Z,11.70
2023-02-22T23:22:28.455Z,11.70
2023-02-22T23:24:59.891Z,11.70
2023-02-22T23:27:28.040Z,11.70
2023-02-22T23:30:00.068Z,11.70
2023-02-22T23:32:27.272Z,11.70
2023-02-22T23:34:58.840Z,11.70
2023-02-22T23:37:28.452Z,11.70
2023-02-22T23:39:55.628Z,11.70
2023-02-22T23:42:23.100Z,11.70
2023-02-22T23:44:52.985Z,11.70
2023-02-22T23:47:22.674Z,11.70
2023-02-22T23:49:52.229Z,11.70
2023-02-22T23:52:24.528Z,11.60
2023-02-22T23:54:54.052Z,11.70
2023-02-22T23:57:21.337Z,11.70
2023-02-22T23:59:51.399Z,11.70
